createdAt,value
2022-12-18T00:01:24.669Z,-2.90
2022-12-18T00:03:53.178Z,-2.90
2022-12-18T00:06:21.140Z,-3.00
2022-12-18T00:08:48.427Z,-2.90
2022-12-18T00:11:18.555Z,-2.90
2022-12-18T00:13:45.913Z,-3.00
2022-12-18T00:16:15.070Z,-3.10
2022-12-18T00:18:42.892Z,-3.10
2022-12-18T00:21:12.403Z,-3.20
2022-12-18T00:23:41.019Z,-3.20
2022-12-18T00:26:12.095Z,-3.20
2022-12-18T00:28:38.883Z,-3.20
2022-12-18T00:31:17.194Z,-3.20
2022-12-18T00:33:44.451Z,-3.30
2022-12-18T00:36:22.682Z,-3.30
2022-12-18T00:38:50.002Z,-3.30
2022-12-18T00:41:38.657Z,-3.20
2022-12-18T00:44:06.982Z,-3.30
2022-12-18T00:46:34.558Z,-3.30
2022-12-18T00:49:01.361Z,-3.40
2022-12-18T00:51:28.677Z,-3.40
2022-12-18T00:53:56.020Z,-3.40
2022-12-18T00:56:23.174Z,-3.50
2022-12-18T00:58:50.073Z,-3.50
2022-12-18T01:01:18.451Z,-3.60
2022-12-18T01:03:47.758Z,-3.60
2022-12-18T01:06:18.424Z,-4.00
2022-12-18T01:08:45.673Z,-4.30
2022-12-18T01:11:19.602Z,-3.70
2022-12-18T01:13:46.719Z,-3.60
2022-12-18T01:16:15.592Z,-3.70
2022-12-18T01:18:43.132Z,-3.80
2022-12-18T01:21:16.190Z,-3.80
2022-12-18T01:23:43.161Z,-3.90
2022-12-18T01:26:12.830Z,-3.80
2022-12-18T01:28:41.048Z,-3.90
2022-12-18T01:31:22.761Z,-3.90
2022-12-18T01:33:50.714Z,-3.90
2022-12-18T01:36:24.988Z,-4.00
2022-12-18T01:38:53.084Z,-4.10
2022-12-18T01:41:23.333Z,-4.10
2022-12-18T01:43:56.578Z,-4.20
2022-12-18T01:46:24.299Z,-4.20
2022-12-18T01:48:56.382Z,-4.30
2022-12-18T01:51:24.171Z,-4.30
2022-12-18T01:53:51.242Z,-4.40
2022-12-18T01:56:20.888Z,-4.40
2022-12-18T01:59:03.195Z,-4.40
2022-12-18T02:01:31.870Z,-4.50
2022-12-18T02:04:25.729Z,-4.60
2022-12-18T02:07:12.077Z,-4.60
2022-12-18T02:09:55.095Z,-4.70
2022-12-18T02:12:25.369Z,-4.60
2022-12-18T02:15:20.205Z,-4.70
2022-12-18T02:18:04.174Z,-4.80
2022-12-18T02:21:13.054Z,-4.80
2022-12-18T02:24:07.618Z,-4.80
2022-12-18T02:26:40.117Z,-4.90
2022-12-18T02:29:12.934Z,-4.90
2022-12-18T02:32:01.850Z,-4.90
2022-12-18T02:34:36.097Z,-4.90
2022-12-18T02:37:08.599Z,-5.00
2022-12-18T02:39:38.551Z,-5.00
2022-12-18T02:42:08.962Z,-5.00
2022-12-18T02:44:43.951Z,-5.10
2022-12-18T02:47:13.683Z,-5.10
2022-12-18T02:49:52.505Z,-5.10
2022-12-18T02:52:35.970Z,-5.10
2022-12-18T02:55:29.178Z,-5.10
2022-12-18T02:58:19.906Z,-5.20
2022-12-18T03:01:10.705Z,-5.20
2022-12-18T03:03:42.019Z,-5.20
2022-12-18T03:06:16.060Z,-5.20
2022-12-18T03:08:47.525Z,-5.20
2022-12-18T03:11:15.621Z,-5.20
2022-12-18T03:13:58.777Z,-5.20
2022-12-18T03:16:32.175Z,-5.30
2022-12-18T03:19:02.912Z,-5.20
2022-12-18T03:21:36.692Z,-5.20
2022-12-18T03:24:08.576Z,-5.20
2022-12-18T03:26:37.938Z,-5.30
2022-12-18T03:29:11.067Z,-5.30
2022-12-18T03:31:41.116Z,-5.30
2022-12-18T03:34:15.370Z,-5.30
2022-12-18T03:36:42.330Z,-5.30
2022-12-18T03:39:09.176Z,-5.40
2022-12-18T03:41:47.439Z,-5.40
2022-12-18T03:44:31.152Z,-5.40
2022-12-18T03:47:25.814Z,-5.40
2022-12-18T03:50:38.372Z,-5.40
2022-12-18T03:53:38.693Z,-5.40
2022-12-18T03:56:07.537Z,-5.50
2022-12-18T03:58:36.731Z,-5.50
2022-12-18T04:01:06.737Z,-5.50
2022-12-18T04:03:36.661Z,-5.50
2022-12-18T04:06:04.771Z,-5.50
2022-12-18T04:08:32.415Z,-5.30
2022-12-18T04:10:59.229Z,-5.60
2022-12-18T04:13:35.454Z,-5.60
2022-12-18T04:16:02.608Z,-5.60
2022-12-18T04:18:29.566Z,-5.60
2022-12-18T04:20:56.414Z,-5.60
2022-12-18T04:23:23.656Z,-5.60
2022-12-18T04:25:50.661Z,-5.70
2022-12-18T04:28:17.483Z,-5.70
2022-12-18T04:30:44.357Z,-5.70
2022-12-18T04:33:13.018Z,-5.70
2022-12-18T04:35:42.973Z,-5.70
2022-12-18T04:38:10.840Z,-5.80
2022-12-18T04:40:38.582Z,-5.80
2022-12-18T04:43:05.532Z,-5.70
2022-12-18T04:45:33.217Z,-5.80
2022-12-18T04:48:01.154Z,-5.80
2022-12-18T04:50:28.794Z,-5.80
2022-12-18T04:52:56.451Z,-5.80
2022-12-18T04:55:23.263Z,-5.90
2022-12-18T04:57:50.042Z,-5.70
2022-12-18T05:00:20.798Z,-5.80
2022-12-18T05:02:52.156Z,-5.90
2022-12-18T05:05:19.351Z,-5.80
2022-12-18T05:07:46.180Z,-5.80
2022-12-18T05:10:13.060Z,-5.90
2022-12-18T05:13:07.027Z,-5.90
2022-12-18T05:15:34.059Z,-5.80
2022-12-18T05:18:01.436Z,-5.80
2022-12-18T05:20:28.795Z,-5.80
2022-12-18T05:22:56.602Z,-5.80
2022-12-18T05:25:23.862Z,-5.90
2022-12-18T05:27:50.788Z,-5.90
2022-12-18T05:30:36.074Z,-5.90
2022-12-18T05:33:05.958Z,-5.90
2022-12-18T05:35:35.767Z,-5.90
2022-12-18T05:38:02.562Z,-5.90
2022-12-18T05:40:29.455Z,-6.00
2022-12-18T05:42:57.054Z,-6.00
2022-12-18T05:45:23.911Z,-6.00
2022-12-18T05:47:54.668Z,-6.00
2022-12-18T05:50:25.884Z,-6.00
2022-12-18T05:52:52.754Z,-6.00
2022-12-18T05:55:19.502Z,-6.00
2022-12-18T05:57:46.321Z,-6.00
2022-12-18T06:00:13.980Z,-6.00
2022-12-18T06:02:40.974Z,-6.00
2022-12-18T06:05:08.208Z,-6.10
2022-12-18T06:07:34.989Z,-6.00
2022-12-18T06:10:01.824Z,-6.10
2022-12-18T06:12:54.316Z,-6.10
2022-12-18T06:15:21.081Z,-6.10
2022-12-18T06:17:47.983Z,-6.10
2022-12-18T06:20:14.940Z,-6.10
2022-12-18T06:22:42.389Z,-6.10
2022-12-18T06:25:09.854Z,-6.10
2022-12-18T06:27:37.139Z,-6.10
2022-12-18T06:30:05.286Z,-6.10
2022-12-18T06:32:32.204Z,-6.10
2022-12-18T06:34:58.998Z,-6.10
2022-12-18T06:37:27.185Z,-6.20
2022-12-18T06:39:57.560Z,-6.20
2022-12-18T06:42:25.298Z,-6.20
2022-12-18T06:44:52.082Z,-6.20
2022-12-18T06:47:36.876Z,-6.20
2022-12-18T06:50:04.196Z,-6.20
2022-12-18T06:52:33.343Z,-6.20
2022-12-18T06:55:00.518Z,-6.20
2022-12-18T06:57:27.327Z,-6.20
2022-12-18T06:59:54.180Z,-6.30
2022-12-18T07:02:21.004Z,-6.20
2022-12-18T07:04:47.865Z,-6.20
2022-12-18T07:07:14.683Z,-6.30
2022-12-18T07:09:41.501Z,-6.20
2022-12-18T07:12:08.985Z,-6.30
2022-12-18T07:14:35.808Z,-6.30
2022-12-18T07:17:02.773Z,-6.30
2022-12-18T07:19:30.921Z,-6.30
2022-12-18T07:21:58.547Z,-6.30
2022-12-18T07:24:25.331Z,-6.30
2022-12-18T07:26:52.115Z,-6.30
2022-12-18T07:29:19.124Z,-6.30
2022-12-18T07:31:46.417Z,-6.30
2022-12-18T07:34:14.909Z,-6.30
2022-12-18T07:36:41.938Z,-6.30
2022-12-18T07:39:08.779Z,-6.20
2022-12-18T07:41:35.619Z,-6.20
2022-12-18T07:44:02.677Z,-6.10
2022-12-18T07:46:38.151Z,-6.10
2022-12-18T07:49:05.328Z,-6.10
2022-12-18T07:51:32.230Z,-6.00
2022-12-18T07:53:59.016Z,-6.00
2022-12-18T07:56:28.594Z,-5.90
2022-12-18T07:58:57.894Z,-5.90
2022-12-18T08:01:25.297Z,-5.90
2022-12-18T08:04:01.595Z,-5.80
2022-12-18T08:06:28.438Z,-5.80
2022-12-18T08:08:56.695Z,-5.80
2022-12-18T08:11:25.893Z,-5.80
2022-12-18T08:13:53.155Z,-5.80
2022-12-18T08:16:20.887Z,-5.50
2022-12-18T08:18:48.274Z,-5.70
2022-12-18T08:21:29.956Z,-5.70
2022-12-18T08:23:59.109Z,-5.70
2022-12-18T08:26:28.467Z,-5.60
2022-12-18T08:28:59.417Z,-5.50
2022-12-18T08:31:28.346Z,-5.50
2022-12-18T08:34:04.301Z,-5.50
2022-12-18T08:36:31.111Z,-5.40
2022-12-18T08:38:58.251Z,-5.30
2022-12-18T08:41:25.894Z,-5.30
2022-12-18T08:44:14.323Z,-5.20
2022-12-18T08:46:43.399Z,-5.20
2022-12-18T08:49:11.346Z,-5.10
2022-12-18T08:51:39.178Z,-5.00
2022-12-18T08:54:07.201Z,-5.00
2022-12-18T08:56:35.077Z,-5.00
2022-12-18T08:59:02.096Z,-5.00
2022-12-18T09:02:01.450Z,-4.90
2022-12-18T09:08:28.763Z,-4.80
2022-12-18T09:10:56.364Z,-4.70
2022-12-18T09:18:52.421Z,-4.60
2022-12-18T09:21:22.160Z,-4.50
2022-12-18T09:24:08.824Z,-4.50
2022-12-18T09:26:36.568Z,-4.50
2022-12-18T09:29:19.640Z,-4.40
2022-12-18T09:37:43.474Z,-4.30
2022-12-18T09:40:27.392Z,-4.30
2022-12-18T09:43:01.397Z,-4.20
2022-12-18T09:45:29.154Z,-4.20
2022-12-18T09:47:57.113Z,-4.10
2022-12-18T09:50:38.891Z,-4.10
2022-12-18T09:53:22.231Z,-4.00
2022-12-18T09:55:54.118Z,-4.00
2022-12-18T09:58:20.855Z,-3.90
2022-12-18T10:00:47.882Z,-3.90
2022-12-18T10:03:17.684Z,-3.90
2022-12-18T10:05:59.447Z,-3.70
2022-12-18T10:08:53.075Z,-3.70
2022-12-18T10:11:50.230Z,-3.60
2022-12-18T10:14:35.035Z,-3.60
2022-12-18T10:17:12.311Z,-3.50
2022-12-18T10:19:51.598Z,-3.40
2022-12-18T10:22:48.434Z,-3.40
2022-12-18T10:25:34.379Z,-3.30
2022-12-18T10:28:21.201Z,-3.30
2022-12-18T10:30:48.063Z,-3.30
2022-12-18T10:33:21.575Z,-3.30
2022-12-18T10:35:51.044Z,-3.20
2022-12-18T10:38:17.863Z,-3.20
2022-12-18T10:40:54.023Z,-3.20
2022-12-18T10:43:26.828Z,-3.20
2022-12-18T10:46:08.691Z,-3.20
2022-12-18T10:49:03.562Z,-3.10
2022-12-18T10:51:36.687Z,-3.00
2022-12-18T10:54:07.649Z,-3.00
2022-12-18T10:56:38.973Z,-2.90
2022-12-18T10:59:12.130Z,-2.90
2022-12-18T11:01:59.024Z,-2.80
2022-12-18T11:04:32.485Z,-2.80
2022-12-18T11:07:01.777Z,-2.70
2022-12-18T11:09:30.688Z,-2.70
2022-12-18T11:12:02.022Z,-2.70
2022-12-18T11:14:35.038Z,-2.70
2022-12-18T11:17:24.885Z,-2.60
2022-12-18T11:19:58.272Z,-1.90
2022-12-18T11:22:27.714Z,-2.30
2022-12-18T11:25:32.607Z,-2.50
2022-12-18T11:28:38.110Z,-2.50
2022-12-18T11:31:21.857Z,-2.40
2022-12-18T11:34:26.674Z,-2.40
2022-12-18T11:36:45.468Z,-2.30
2022-12-18T11:39:41.565Z,-2.30
2022-12-18T11:42:49.176Z,-2.30
2022-12-18T11:45:34.158Z,-2.20
2022-12-18T11:48:23.720Z,-2.20
2022-12-18T11:51:26.216Z,-2.10
2022-12-18T11:54:31.360Z,-2.10
2022-12-18T11:57:16.917Z,-2.10
2022-12-18T11:59:53.455Z,-2.10
2022-12-18T12:02:23.773Z,-2.00
2022-12-18T12:05:30.242Z,-2.00
2022-12-18T12:08:40.716Z,-2.00
2022-12-18T12:11:13.704Z,-1.90
2022-12-18T12:14:03.466Z,-2.00
2022-12-18T12:16:37.106Z,-1.90
2022-12-18T12:19:25.469Z,-1.90
2022-12-18T12:22:11.652Z,-1.90
2022-12-18T12:24:49.356Z,-1.90
2022-12-18T12:27:25.179Z,-1.80
2022-12-18T12:30:19.607Z,-1.80
2022-12-18T12:33:15.665Z,-1.70
2022-12-18T12:35:49.747Z,-1.70
2022-12-18T12:38:26.129Z,-1.70
2022-12-18T12:41:22.119Z,-1.70
2022-12-18T12:43:51.628Z,-1.70
2022-12-18T12:46:27.470Z,-1.60
2022-12-18T12:49:00.689Z,-1.60
2022-12-18T12:51:41.091Z,-1.60
2022-12-18T12:54:20.493Z,-1.60
2022-12-18T12:57:00.484Z,-1.60
2022-12-18T12:59:53.493Z,-1.00
2022-12-18T13:02:55.270Z,-1.50
2022-12-18T13:05:49.311Z,-1.50
2022-12-18T13:08:34.205Z,-1.40
2022-12-18T13:11:21.280Z,-1.40
2022-12-18T13:13:54.680Z,-1.40
2022-12-18T13:16:24.382Z,-1.30
2022-12-18T13:18:53.576Z,-1.30
2022-12-18T13:21:30.210Z,-1.30
2022-12-18T13:23:58.610Z,-1.30
2022-12-18T13:26:29.034Z,-1.30
2022-12-18T13:28:57.864Z,-1.30
2022-12-18T13:31:30.774Z,-1.30
2022-12-18T13:34:27.793Z,-1.30
2022-12-18T13:37:01.989Z,-1.30
2022-12-18T13:39:35.539Z,-1.30
2022-12-18T13:42:06.101Z,-1.30
2022-12-18T13:44:41.589Z,-1.30
2022-12-18T13:47:35.428Z,-1.40
2022-12-18T13:50:10.999Z,-1.40
2022-12-18T13:52:40.796Z,-1.20
2022-12-18T13:55:17.057Z,-1.20
2022-12-18T13:57:43.944Z,-1.40
2022-12-18T14:00:30.651Z,-1.40
2022-12-18T14:02:59.482Z,-1.40
2022-12-18T14:05:30.982Z,-1.40
2022-12-18T14:08:03.975Z,-1.40
2022-12-18T14:10:42.291Z,-1.40
2022-12-18T14:16:41.766Z,-1.50
2022-12-18T14:19:17.934Z,-1.50
2022-12-18T14:21:51.610Z,-1.50
2022-12-18T14:24:21.343Z,-1.50
2022-12-18T14:26:50.834Z,-1.60
2022-12-18T14:29:30.838Z,-1.60
2022-12-18T14:32:19.413Z,-1.60
2022-12-18T14:34:51.816Z,-1.60
2022-12-18T14:37:22.896Z,-1.60
2022-12-18T14:40:02.157Z,-1.60
2022-12-18T14:42:31.661Z,-1.70
2022-12-18T14:45:41.644Z,-1.70
2022-12-18T14:48:23.454Z,-1.70
2022-12-18T14:51:05.707Z,-1.70
2022-12-18T14:53:52.435Z,-0.90
2022-12-18T14:56:26.709Z,-1.60
2022-12-18T14:59:02.776Z,-1.70
2022-12-18T15:01:34.208Z,-1.70
2022-12-18T15:04:44.724Z,-1.70
2022-12-18T15:07:49.450Z,-1.70
2022-12-18T15:13:41.392Z,-1.70
2022-12-18T15:16:13.901Z,-1.70
2022-12-18T15:18:46.067Z,-1.70
2022-12-18T15:22:12.740Z,-1.70
2022-12-18T15:24:39.575Z,-1.70
2022-12-18T15:27:28.515Z,-1.70
2022-12-18T15:30:22.866Z,-1.80
2022-12-18T15:32:52.285Z,-1.80
2022-12-18T15:35:23.499Z,-1.00
2022-12-18T15:37:53.339Z,-1.80
2022-12-18T15:40:22.805Z,-1.70
2022-12-18T15:43:11.019Z,-1.70
2022-12-18T15:45:37.868Z,-1.80
2022-12-18T15:51:59.953Z,-1.70
2022-12-18T15:55:11.070Z,-1.70
2022-12-18T15:57:37.837Z,-1.70
2022-12-18T16:00:13.693Z,-1.70
2022-12-18T16:02:45.266Z,-1.10
2022-12-18T16:05:18.078Z,-1.70
2022-12-18T16:07:45.632Z,-1.70
2022-12-18T16:10:12.570Z,-1.30
2022-12-18T16:12:39.736Z,-1.70
2022-12-18T16:15:07.559Z,-1.70
2022-12-18T16:18:43.645Z,-1.70
2022-12-18T16:21:18.361Z,-1.60
2022-12-18T16:23:45.271Z,-1.60
2022-12-18T16:26:12.158Z,-1.60
2022-12-18T16:28:42.534Z,-1.50
2022-12-18T16:31:12.483Z,-1.60
2022-12-18T16:33:42.757Z,-1.60
2022-12-18T16:36:10.098Z,-0.90
2022-12-18T16:38:46.863Z,-1.00
2022-12-18T16:41:32.336Z,-0.80
2022-12-18T16:44:03.996Z,-1.40
2022-12-18T16:46:34.647Z,-1.50
2022-12-18T16:51:48.593Z,-1.60
2022-12-18T16:54:19.158Z,-1.60
2022-12-18T16:56:49.897Z,-1.50
2022-12-18T16:59:17.190Z,-1.10
2022-12-18T17:01:44.977Z,-1.10
2022-12-18T17:04:12.081Z,-1.50
2022-12-18T17:06:44.366Z,-1.50
2022-12-18T17:09:18.597Z,-1.50
2022-12-18T17:11:45.496Z,-1.50
2022-12-18T17:14:18.555Z,-1.50
2022-12-18T17:16:46.717Z,-1.50
2022-12-18T17:19:22.798Z,-1.50
2022-12-18T17:24:35.420Z,-1.40
2022-12-18T17:27:03.706Z,-1.10
2022-12-18T17:29:30.963Z,-1.40
2022-12-18T17:32:06.836Z,-1.40
2022-12-18T17:34:37.054Z,-1.30
2022-12-18T17:37:03.960Z,-1.00
2022-12-18T17:39:31.131Z,-1.40
2022-12-18T17:41:59.481Z,-1.30
2022-12-18T17:44:26.695Z,-1.30
2022-12-18T17:46:53.802Z,-0.80
2022-12-18T17:49:21.761Z,-1.20
2022-12-18T17:52:00.683Z,-0.80
2022-12-18T17:54:30.831Z,-1.20
2022-12-18T17:56:57.865Z,-1.20
2022-12-18T17:59:24.702Z,-1.30
2022-12-18T18:01:51.686Z,-1.20
2022-12-18T18:04:21.523Z,-1.20
2022-12-18T18:06:48.564Z,-1.20
2022-12-18T18:09:16.897Z,-1.20
2022-12-18T18:12:03.579Z,-1.20
2022-12-18T18:14:33.208Z,-1.20
2022-12-18T18:17:04.876Z,-1.20
2022-12-18T18:19:34.047Z,-1.20
2022-12-18T18:22:06.266Z,-0.90
2022-12-18T18:24:33.611Z,-1.90
2022-12-18T18:27:00.480Z,-1.20
2022-12-18T18:29:30.569Z,-1.20
2022-12-18T18:31:59.310Z,-1.10
2022-12-18T18:34:29.152Z,-1.10
2022-12-18T18:36:56.141Z,-1.10
2022-12-18T18:39:23.584Z,-1.10
2022-12-18T18:41:51.566Z,-1.10
2022-12-18T18:44:24.430Z,-1.00
2022-12-18T18:46:57.670Z,-1.00
2022-12-18T18:49:27.579Z,-1.00
2022-12-18T18:51:55.973Z,-0.80
2022-12-18T18:54:23.009Z,-1.00
2022-12-18T18:59:37.254Z,-1.00
2022-12-18T19:02:05.033Z,-0.90
2022-12-18T19:05:09.965Z,-0.90
2022-12-18T19:07:45.450Z,-0.80
2022-12-18T19:10:12.250Z,-1.40
2022-12-18T19:12:57.319Z,-0.80
2022-12-18T19:15:24.220Z,-0.80
2022-12-18T19:17:53.218Z,-0.80
2022-12-18T19:23:19.958Z,-0.80
2022-12-18T19:25:46.753Z,-0.70
2022-12-18T19:28:21.844Z,-0.80
2022-12-18T19:30:49.566Z,-0.70
2022-12-18T19:33:45.505Z,-0.70
2022-12-18T19:40:14.884Z,-0.70
2022-12-18T19:42:43.139Z,-0.70
2022-12-18T19:45:10.424Z,-0.70
2022-12-18T19:47:37.232Z,-0.70
2022-12-18T19:50:04.498Z,-0.70
2022-12-18T19:52:41.403Z,-0.70
2022-12-18T19:55:19.166Z,-0.70
2022-12-18T20:00:39.420Z,-0.20
2022-12-18T20:03:23.264Z,-0.70
2022-12-18T20:05:54.172Z,-0.70
2022-12-18T20:08:24.283Z,-0.70
2022-12-18T20:11:43.663Z,-0.70
2022-12-18T20:14:29.371Z,-0.60
2022-12-18T20:16:56.325Z,-0.70
2022-12-18T20:19:23.711Z,-0.60
2022-12-18T20:21:51.124Z,-0.60
2022-12-18T20:24:18.082Z,-0.60
2022-12-18T20:26:45.043Z,-0.60
2022-12-18T20:29:30.776Z,-0.60
2022-12-18T20:31:57.675Z,-0.60
2022-12-18T20:34:24.759Z,-0.60
2022-12-18T20:36:52.279Z,-0.60
2022-12-18T20:39:27.574Z,-0.60
2022-12-18T20:41:56.335Z,-0.50
2022-12-18T20:44:24.143Z,-0.50
2022-12-18T20:48:15.000Z,-0.50
2022-12-18T20:50:51.378Z,-0.50
2022-12-18T20:53:18.176Z,-0.40
2022-12-18T20:55:45.264Z,-0.40
2022-12-18T20:58:12.172Z,-0.40
2022-12-18T21:00:38.930Z,-0.40
2022-12-18T21:03:05.822Z,-0.30
2022-12-18T21:06:05.253Z,-0.30
2022-12-18T21:08:32.517Z,-0.30
2022-12-18T21:11:43.462Z,-0.30
2022-12-18T21:14:13.218Z,-0.20
2022-12-18T21:16:40.463Z,-0.20
2022-12-18T21:19:27.124Z,-0.20
2022-12-18T21:21:56.125Z,-0.20
2022-12-18T21:24:24.023Z,-0.20
2022-12-18T21:26:51.706Z,-0.20
2022-12-18T21:29:27.967Z,-0.20
2022-12-18T21:31:55.282Z,-0.10
2022-12-18T21:34:31.298Z,-0.10
2022-12-18T21:36:59.929Z,-0.10
2022-12-18T21:39:28.903Z,-0.10
2022-12-18T21:42:18.617Z,0.00
2022-12-18T21:44:49.704Z,0.00
2022-12-18T21:47:21.462Z,0.80
2022-12-18T21:49:53.722Z,0.00
2022-12-18T21:52:24.573Z,0.10
2022-12-18T21:55:03.092Z,0.60
2022-12-18T21:57:35.085Z,0.10
2022-12-18T22:00:06.038Z,0.10
2022-12-18T22:02:33.025Z,0.10
2022-12-18T22:04:59.991Z,0.10
2022-12-18T22:07:28.977Z,0.20
2022-12-18T22:09:55.817Z,0.20
2022-12-18T22:12:43.237Z,0.20
2022-12-18T22:15:22.136Z,0.20
2022-12-18T22:17:50.926Z,0.20
2022-12-18T22:20:20.067Z,0.20
2022-12-18T22:22:48.026Z,0.30
2022-12-18T22:25:14.975Z,0.20
2022-12-18T22:27:41.760Z,0.30
2022-12-18T22:30:09.391Z,0.20
2022-12-18T22:32:36.575Z,0.30
2022-12-18T22:35:10.395Z,0.30
2022-12-18T22:37:39.683Z,0.30
2022-12-18T22:40:07.571Z,0.40
2022-12-18T22:42:35.564Z,0.40
2022-12-18T22:45:02.449Z,0.40
2022-12-18T22:47:30.419Z,0.40
2022-12-18T22:49:58.134Z,0.40
2022-12-18T22:52:25.384Z,0.50
2022-12-18T22:54:53.806Z,0.40
2022-12-18T22:57:22.076Z,0.40
2022-12-18T22:59:49.760Z,0.40
2022-12-18T23:02:17.888Z,0.40
2022-12-18T23:04:45.079Z,0.40
2022-12-18T23:07:11.959Z,0.80
2022-12-18T23:09:41.370Z,0.40
2022-12-18T23:12:08.443Z,0.40
2022-12-18T23:14:35.330Z,0.40
2022-12-18T23:17:02.493Z,0.40
2022-12-18T23:19:30.803Z,0.40
2022-12-18T23:21:58.825Z,0.50
2022-12-18T23:24:28.553Z,0.50
2022-12-18T23:26:58.155Z,0.50
2022-12-18T23:29:25.009Z,0.40
2022-12-18T23:31:51.849Z,0.50
2022-12-18T23:34:18.659Z,0.50
2022-12-18T23:36:48.477Z,0.50
2022-12-18T23:39:28.828Z,0.50
2022-12-18T23:42:00.820Z,0.50
2022-12-18T23:44:28.223Z,0.50
2022-12-18T23:46:55.635Z,0.50
2022-12-18T23:49:25.285Z,0.50
2022-12-18T23:51:54.951Z,0.50
2022-12-18T23:54:33.466Z,0.50
2022-12-18T23:57:01.615Z,0.50
2022-12-18T23:59:28.512Z,0.50
